21CO weather

Southlands ER Heliport
Aurora, Colorado, United States

Public forecast

Using degrees Fahrenheit for public forecast. Weather courtesy of forecast.io.

METAR (pilot weather report)

Closest report is Buckley Air Force Base, 6.2 nm (11.5 km) NNW. Retrieved 2019/04/25 08:58 UTC (40 minutes ago):

KBKF 250858Z 36019G26KT 10SM OVC011 07/05 A3013 RMK AO2A PK WND 36034/16 PRESRR SLP154 T00690049 53043

TAF (pilot weather forecast)

Closest forecast is Buckley Air Force Base, 6.2 nm (11.5 km) NNW. Retrieved 2019/04/25 09:06 UTC (32 minutes ago):

TAF KBKF 250900Z 2509/2615 31012G18KT 9999 BKN010 BKN030 OVC050 QNH3007INS TEMPO 2509/2513 36020G35KT SCT010 BKN050 520009 BECMG 2512/2513 31009KT 9999 SCT030 BKN050 QNH3018INS BECMG 2521/2522 VRB06KT 9999 SKC QNH3017INS BECMG 2603/2604 12012G18KT 9999 FEW040 QNH3015INS BECMG 2612/2613 22009KT 9999 SKC QNH3010INS TX21/2522Z TN06/2511Z